Time;durP1;ratioP1;P1;durP2;ratioP2;P2;SDS_P1;SDS_P2;PMS_P1;PMS_P2;Temp;Humidity;BMP_temperature;BMP_pressure;BME280_temperature;BME280_humidity;BME280_pressure;Samples;Min_cycle;Max_cycle;Signal;HPM_P1;HPM_P2
2022/10/07 00:00:51;;;;;;;10.15;5.78;;;;;;;;;;4974629;28;20058;-83
2022/10/07 00:03:17;;;;;;;7.25;5.57;;;;;;;;;;4956994;28;20570;-83
2022/10/07 00:05:43;;;;;;;9.65;5.85;;;;;;;;;;4974582;28;20078;-82
2022/10/07 00:08:09;;;;;;;7.75;5.53;;;;;;;;;;4957027;28;20038;-83
2022/10/07 00:10:39;;;;;;;9.52;6.32;;;;;;;;;;4957277;28;20034;-83
2022/10/07 00:13:06;;;;;;;6.88;5.10;;;;;;;;;;4957282;28;20089;-83
2022/10/07 00:15:32;;;;;;;11.57;5.72;;;;;;;;;;4957202;28;20034;-82
2022/10/07 00:17:58;;;;;;;10.73;6.18;;;;;;;;;;4957633;28;20143;-82
2022/10/07 00:20:24;;;;;;;5.82;4.50;;;;;;;;;;4960726;28;20050;-83
2022/10/07 00:22:52;;;;;;;8.52;5.97;;;;;;;;;;4977871;28;20027;-81
2022/10/07 00:25:18;;;;;;;12.82;6.60;;;;;;;;;;4960347;28;20031;-82
2022/10/07 00:27:44;;;;;;;9.10;5.32;;;;;;;;;;4960394;28;20031;-83
2022/10/07 00:30:11;;;;;;;9.32;6.32;;;;;;;;;;4960472;28;20022;-83
2022/10/07 00:32:37;;;;;;;9.68;5.90;;;;;;;;;;4960342;28;20173;-83
2022/10/07 00:35:03;;;;;;;10.73;6.88;;;;;;;;;;4960400;28;20030;-83
2022/10/07 00:37:29;;;;;;;11.23;6.57;;;;;;;;;;4960404;28;20458;-81
2022/10/07 00:39:55;;;;;;;9.70;6.95;;;;;;;;;;4960370;28;20037;-82
2022/10/07 00:42:21;;;;;;;13.65;8.40;;;;;;;;;;4960294;28;20503;-83
2022/10/07 00:44:47;;;;;;;14.05;8.40;;;;;;;;;;4959909;28;20062;-83
2022/10/07 00:47:17;;;;;;;16.55;8.70;;;;;;;;;;4960124;28;20071;-82
2022/10/07 00:50:03;;;;;;;15.88;8.25;;;;;;;;;;4959989;28;20500;-83
2022/10/07 00:52:33;;;;;;;14.27;8.80;;;;;;;;;;4977379;28;20476;-83
2022/10/07 00:55:01;;;;;;;14.30;8.73;;;;;;;;;;4959993;28;20031;-83
2022/10/07 00:57:30;;;;;;;23.15;10.00;;;;;;;;;;4960250;28;20023;-83
2022/10/07 00:59:56;;;;;;;25.15;11.80;;;;;;;;;;4959607;28;20110;-82
2022/10/07 01:02:24;;;;;;;15.60;8.88;;;;;;;;;;4960402;28;20034;-83
2022/10/07 01:04:51;;;;;;;14.75;8.93;;;;;;;;;;4959947;28;20030;-83
2022/10/07 01:07:20;;;;;;;13.50;8.75;;;;;;;;;;4959884;28;20117;-83
2022/10/07 01:09:50;;;;;;;14.30;8.00;;;;;;;;;;4959722;28;20046;-83
2022/10/07 01:12:19;;;;;;;14.90;8.30;;;;;;;;;;4960230;28;20185;-83
2022/10/07 01:14:54;;;;;;;14.75;8.45;;;;;;;;;;4959972;28;20110;-83
2022/10/07 01:17:46;;;;;;;13.82;7.47;;;;;;;;;;4962905;28;20484;-82
2022/10/07 01:20:18;;;;;;;13.07;7.63;;;;;;;;;;4953296;28;20027;-82
2022/10/07 01:22:48;;;;;;;13.60;7.50;;;;;;;;;;4977466;28;20023;-83
2022/10/07 01:25:33;;;;;;;15.73;7.22;;;;;;;;;;4963744;28;20037;-82
2022/10/07 01:28:20;;;;;;;13.32;7.70;;;;;;;;;;4966350;28;20043;-83
2022/10/07 01:30:48;;;;;;;13.40;6.97;;;;;;;;;;4965638;28;20030;-82
2022/10/07 01:33:17;;;;;;;12.85;7.15;;;;;;;;;;4969813;28;20059;-84
2022/10/07 01:35:46;;;;;;;11.45;6.88;;;;;;;;;;4984144;28;20015;-82
2022/10/07 01:38:13;;;;;;;11.18;6.25;;;;;;;;;;4965409;28;20033;-83
2022/10/07 01:40:43;;;;;;;12.70;8.35;;;;;;;;;;4963403;28;20039;-82
2022/10/07 01:43:09;;;;;;;10.95;7.13;;;;;;;;;;4963759;28;20031;-83
2022/10/07 01:45:38;;;;;;;10.93;7.10;;;;;;;;;;4961399;28;20054;-83
2022/10/07 01:48:04;;;;;;;9.18;6.35;;;;;;;;;;4964057;28;20031;-82
2022/10/07 01:50:31;;;;;;;9.57;6.13;;;;;;;;;;4965478;28;20472;-83
2022/10/07 01:53:02;;;;;;;12.40;6.95;;;;;;;;;;4963860;28;20027;-82
2022/10/07 01:55:39;;;;;;;8.80;5.95;;;;;;;;;;4963294;28;20027;-83
2022/10/07 01:58:15;;;;;;;7.93;4.90;;;;;;;;;;4958763;28;20022;-82
2022/10/07 02:00:46;;;;;;;7.07;4.78;;;;;;;;;;4958575;28;20019;-82
2022/10/07 02:03:28;;;;;;;9.27;6.65;;;;;;;;;;4958908;28;20098;-82
2022/10/07 02:06:00;;;;;;;10.82;6.25;;;;;;;;;;4958783;28;20035;-81
2022/10/07 02:08:37;;;;;;;8.70;5.82;;;;;;;;;;4958431;28;20480;-81
2022/10/07 02:11:12;;;;;;;9.15;5.20;;;;;;;;;;4958930;28;20058;-81
2022/10/07 02:13:46;;;;;;;11.85;6.57;;;;;;;;;;4960403;28;20065;-81
2022/10/07 02:16:12;;;;;;;10.55;5.88;;;;;;;;;;4958643;28;20038;-82
2022/10/07 02:18:40;;;;;;;11.45;6.18;;;;;;;;;;4975665;28;20465;-82
2022/10/07 02:21:08;;;;;;;10.88;5.97;;;;;;;;;;4958538;28;20033;-82
2022/10/07 02:23:35;;;;;;;10.38;6.47;;;;;;;;;;4958195;28;20030;-81
2022/10/07 02:26:03;;;;;;;10.57;6.72;;;;;;;;;;4958531;28;20050;-82
2022/10/07 02:28:29;;;;;;;12.07;6.85;;;;;;;;;;4958166;28;20105;-82
2022/10/07 02:30:59;;;;;;;12.20;7.15;;;;;;;;;;4958246;28;20045;-82
2022/10/07 02:33:26;;;;;;;11.00;6.10;;;;;;;;;;4958111;28;20027;-82
2022/10/07 02:35:55;;;;;;;8.68;5.90;;;;;;;;;;4958093;28;20086;-81
2022/10/07 02:38:21;;;;;;;13.70;7.95;;;;;;;;;;4958199;28;20023;-82
2022/10/07 02:41:06;;;;;;;11.07;6.82;;;;;;;;;;4957754;28;20058;-82
2022/10/07 02:43:52;;;;;;;9.75;5.80;;;;;;;;;;4958185;28;20030;-80
2022/10/07 02:46:24;;;;;;;11.02;6.68;;;;;;;;;;4959270;28;20054;-82
2022/10/07 02:48:59;;;;;;;16.05;8.88;;;;;;;;;;4957895;28;20154;-82
2022/10/07 02:51:27;;;;;;;15.95;9.13;;;;;;;;;;4958152;28;20030;-82
2022/10/07 02:53:54;;;;;;;12.77;8.15;;;;;;;;;;4957951;28;20068;-81
2022/10/07 02:56:23;;;;;;;17.52;8.45;;;;;;;;;;4957750;28;20042;-82
2022/10/07 02:58:50;;;;;;;13.02;8.60;;;;;;;;;;4957544;28;20041;-82
2022/10/07 03:01:21;;;;;;;11.55;8.13;;;;;;;;;;4957666;28;20093;-82
2022/10/07 03:03:47;;;;;;;11.18;7.13;;;;;;;;;;4957833;28;20023;-81
2022/10/07 03:06:14;;;;;;;12.98;7.85;;;;;;;;;;4957860;28;20038;-82
2022/10/07 03:08:41;;;;;;;13.98;9.32;;;;;;;;;;4975062;28;20101;-82
2022/10/07 03:11:07;;;;;;;11.07;8.25;;;;;;;;;;4975147;28;20136;-81
2022/10/07 03:13:34;;;;;;;11.05;8.18;;;;;;;;;;4957501;28;20062;-81
2022/10/07 03:16:02;;;;;;;20.23;11.32;;;;;;;;;;4957730;28;20027;-82
2022/10/07 03:18:29;;;;;;;14.02;8.10;;;;;;;;;;4957753;28;20058;-82
2022/10/07 03:20:55;;;;;;;17.63;9.13;;;;;;;;;;4957903;28;20030;-82
2022/10/07 03:23:22;;;;;;;12.50;7.72;;;;;;;;;;4957328;28;20392;-82
2022/10/07 03:25:50;;;;;;;14.73;9.73;;;;;;;;;;4957501;28;20392;-81
2022/10/07 03:28:16;;;;;;;12.82;8.02;;;;;;;;;;4957367;28;20037;-81
2022/10/07 03:30:43;;;;;;;14.75;9.55;;;;;;;;;;4957554;28;20483;-82
2022/10/07 03:33:09;;;;;;;13.93;7.88;;;;;;;;;;4957562;28;20034;-82
2022/10/07 03:35:35;;;;;;;10.50;7.82;;;;;;;;;;4957598;28;20030;-82
2022/10/07 03:38:01;;;;;;;12.48;8.93;;;;;;;;;;4957485;28;20035;-82
2022/10/07 03:40:27;;;;;;;17.75;9.40;;;;;;;;;;4957510;28;20019;-82
2022/10/07 03:42:53;;;;;;;18.95;10.45;;;;;;;;;;4957391;28;20031;-81
2022/10/07 03:45:19;;;;;;;11.77;7.70;;;;;;;;;;4957083;28;20062;-81
2022/10/07 03:47:45;;;;;;;16.45;8.85;;;;;;;;;;4957262;28;20034;-82
2022/10/07 03:50:11;;;;;;;16.90;9.45;;;;;;;;;;4957260;28;20432;-81
2022/10/07 03:52:37;;;;;;;16.77;9.30;;;;;;;;;;4957575;28;20027;-81
2022/10/07 03:55:04;;;;;;;14.52;8.85;;;;;;;;;;4961246;28;20089;-82
2022/10/07 04:00:14;;;;;;;12.52;9.35;;;;;;;;;;4978729;28;20388;-82
2022/10/07 04:02:41;;;;;;;14.93;9.15;;;;;;;;;;4961082;28;20023;-82
2022/10/07 04:05:07;;;;;;;15.25;9.88;;;;;;;;;;4960910;28;20113;-81
2022/10/07 04:07:33;;;;;;;15.82;10.02;;;;;;;;;;4961089;28;20424;-82
2022/10/07 04:09:59;;;;;;;14.70;9.60;;;;;;;;;;4960592;28;20050;-82
2022/10/07 04:12:25;;;;;;;22.67;11.73;;;;;;;;;;4978038;28;20388;-82
2022/10/07 04:14:51;;;;;;;13.57;8.82;;;;;;;;;;4960603;28;20117;-82
2022/10/07 04:17:17;;;;;;;13.55;9.07;;;;;;;;;;4960887;28;20047;-82
2022/10/07 04:19:44;;;;;;;14.73;9.60;;;;;;;;;;4960424;28;20027;-82
2022/10/07 04:22:10;;;;;;;14.77;8.50;;;;;;;;;;4960343;28;20399;-81
2022/10/07 04:24:36;;;;;;;16.73;9.65;;;;;;;;;;4960415;28;20027;-82
2022/10/07 04:27:03;;;;;;;15.07;9.32;;;;;;;;;;4960386;28;20030;-80
2022/10/07 04:29:30;;;;;;;14.35;9.32;;;;;;;;;;4960262;28;20047;-82
2022/10/07 04:31:57;;;;;;;13.43;9.82;;;;;;;;;;4960391;28;20603;-80
2022/10/07 04:34:23;;;;;;;15.10;9.50;;;;;;;;;;4960086;28;20476;-82
2022/10/07 04:36:51;;;;;;;15.00;8.93;;;;;;;;;;4960215;28;20035;-82
2022/10/07 04:39:17;;;;;;;12.25;8.65;;;;;;;;;;4960160;28;20035;-82
2022/10/07 04:41:44;;;;;;;14.40;9.27;;;;;;;;;;4960270;28;20045;-82
2022/10/07 04:44:10;;;;;;;11.55;8.45;;;;;;;;;;4960208;28;20122;-81
2022/10/07 04:46:36;;;;;;;15.10;10.60;;;;;;;;;;4960089;28;20061;-82
2022/10/07 04:49:03;;;;;;;12.55;9.30;;;;;;;;;;4960022;28;20038;-80
2022/10/07 04:51:30;;;;;;;14.70;10.18;;;;;;;;;;4960041;28;20031;-82
2022/10/07 04:53:56;;;;;;;18.75;13.73;;;;;;;;;;4960116;28;20077;-82
2022/10/07 04:56:22;;;;;;;18.13;11.20;;;;;;;;;;4959927;28;20027;-83
2022/10/07 04:58:48;;;;;;;15.57;9.27;;;;;;;;;;4960269;28;20484;-82
2022/10/07 05:01:15;;;;;;;15.40;9.70;;;;;;;;;;4959834;28;20034;-82
2022/10/07 05:03:41;;;;;;;18.00;9.90;;;;;;;;;;4959956;28;20030;-82
2022/10/07 05:06:08;;;;;;;16.08;10.77;;;;;;;;;;4958853;28;20129;-81
2022/10/07 05:08:34;;;;;;;16.27;10.70;;;;;;;;;;4959705;28;20034;-82
2022/10/07 05:11:02;;;;;;;16.85;9.80;;;;;;;;;;4959581;28;20122;-82
2022/10/07 05:13:28;;;;;;;15.55;9.77;;;;;;;;;;4959622;28;20065;-83
2022/10/07 05:15:58;;;;;;;16.40;10.85;;;;;;;;;;4959878;28;20142;-84
2022/10/07 05:18:26;;;;;;;16.25;10.15;;;;;;;;;;4959713;28;20073;-81
2022/10/07 05:20:52;;;;;;;15.05;10.63;;;;;;;;;;4959342;28;20022;-82
2022/10/07 05:23:24;;;;;;;19.33;12.50;;;;;;;;;;4944572;28;20031;-81
2022/10/07 05:26:00;;;;;;;14.45;10.02;;;;;;;;;;4957997;28;20369;-80
2022/10/07 05:28:26;;;;;;;14.73;8.60;;;;;;;;;;4939256;29;20035;-79
2022/10/07 05:31:02;;;;;;;12.13;8.40;;;;;;;;;;4936486;29;20031;-80
2022/10/07 05:33:31;;;;;;;14.55;8.90;;;;;;;;;;4939280;29;20055;-80
2022/10/07 05:35:58;;;;;;;19.05;11.15;;;;;;;;;;4939367;29;20035;-79
2022/10/07 05:38:25;;;;;;;24.20;16.80;;;;;;;;;;4940642;29;20122;-80
2022/10/07 05:41:02;;;;;;;18.27;9.85;;;;;;;;;;4938979;29;20023;-82
2022/10/07 05:43:28;;;;;;;19.48;11.10;;;;;;;;;;4959074;29;20109;-79
2022/10/07 05:46:01;;;;;;;26.52;14.75;;;;;;;;;;4956967;28;20061;-80
2022/10/07 05:48:29;;;;;;;20.45;9.70;;;;;;;;;;4941441;29;20039;-79
2022/10/07 05:50:56;;;;;;;21.00;13.63;;;;;;;;;;4940290;29;20063;-79
2022/10/07 05:53:22;;;;;;;17.13;11.45;;;;;;;;;;4939386;29;20065;-79
2022/10/07 05:55:50;;;;;;;16.42;10.82;;;;;;;;;;4940117;29;20023;-80
2022/10/07 05:58:16;;;;;;;17.35;11.15;;;;;;;;;;4940983;29;20117;-79
2022/10/07 06:00:53;;;;;;;11.75;9.25;;;;;;;;;;4938685;29;20042;-79
2022/10/07 06:03:19;;;;;;;18.85;11.75;;;;;;;;;;4938842;29;20065;-79
2022/10/07 06:05:46;;;;;;;18.50;10.40;;;;;;;;;;4955410;29;20031;-79
2022/10/07 06:08:13;;;;;;;19.50;10.10;;;;;;;;;;4938440;29;20148;-79
2022/10/07 06:13:23;;;;;;;23.60;11.82;;;;;;;;;;4956257;29;20058;-80
2022/10/07 06:15:50;;;;;;;22.48;11.93;;;;;;;;;;4955538;28;20408;-80
2022/10/07 06:18:16;;;;;;;20.13;11.38;;;;;;;;;;4938633;29;20396;-80
2022/10/07 06:20:42;;;;;;;18.70;11.85;;;;;;;;;;4956457;29;20455;-79
2022/10/07 06:23:08;;;;;;;16.58;11.80;;;;;;;;;;4938377;29;20038;-80
2022/10/07 06:25:34;;;;;;;20.77;11.75;;;;;;;;;;4938144;29;20027;-79
2022/10/07 06:28:02;;;;;;;16.30;9.55;;;;;;;;;;4938554;29;20038;-79
2022/10/07 06:30:28;;;;;;;13.13;9.95;;;;;;;;;;4963469;29;20031;-79
2022/10/07 06:32:55;;;;;;;12.15;10.85;;;;;;;;;;4938520;29;20392;-79
2022/10/07 06:35:23;;;;;;;18.08;12.20;;;;;;;;;;4941043;28;20480;-78
2022/10/07 06:37:49;;;;;;;18.13;12.27;;;;;;;;;;4939846;29;20054;-81
2022/10/07 06:40:15;;;;;;;18.88;14.43;;;;;;;;;;4936934;29;20035;-80
2022/10/07 06:42:41;;;;;;;16.25;10.23;;;;;;;;;;4955549;29;20039;-81
2022/10/07 06:45:07;;;;;;;14.50;10.57;;;;;;;;;;4954828;29;20058;-80
2022/10/07 06:47:34;;;;;;;14.23;10.82;;;;;;;;;;4938198;29;20031;-80
2022/10/07 06:50:00;;;;;;;12.68;8.85;;;;;;;;;;4937934;29;20050;-79
2022/10/07 06:52:26;;;;;;;13.52;10.30;;;;;;;;;;4938149;29;20027;-80
2022/10/07 06:54:52;;;;;;;10.93;8.82;;;;;;;;;;4938054;29;20027;-80
2022/10/07 06:57:18;;;;;;;9.57;7.90;;;;;;;;;;4937952;29;20361;-80
2022/10/07 06:59:44;;;;;;;9.95;7.68;;;;;;;;;;4938011;29;20019;-79
2022/10/07 07:02:10;;;;;;;10.02;7.28;;;;;;;;;;4937763;29;20032;-80
2022/10/07 07:04:37;;;;;;;10.20;9.18;;;;;;;;;;4937910;29;20374;-80
2022/10/07 07:07:04;;;;;;;10.73;7.50;;;;;;;;;;4937943;29;20498;-80
2022/10/07 07:09:31;;;;;;;11.75;8.00;;;;;;;;;;4937706;29;20075;-79
2022/10/07 07:11:57;;;;;;;14.27;7.60;;;;;;;;;;4937578;29;20024;-80
2022/10/07 07:14:24;;;;;;;12.77;8.38;;;;;;;;;;4937796;29;20465;-80
2022/10/07 07:16:52;;;;;;;9.00;7.40;;;;;;;;;;4937860;29;20087;-80
2022/10/07 07:19:18;;;;;;;12.23;8.60;;;;;;;;;;4937727;29;20027;-81
2022/10/07 07:21:44;;;;;;;12.10;7.50;;;;;;;;;;4937491;29;20035;-80
2022/10/07 07:24:10;;;;;;;10.82;7.40;;;;;;;;;;4937520;29;20053;-79
2022/10/07 07:26:39;;;;;;;8.63;7.03;;;;;;;;;;4937509;29;20024;-81
2022/10/07 07:29:05;;;;;;;10.02;7.30;;;;;;;;;;4940314;29;20396;-81
2022/10/07 07:31:32;;;;;;;10.80;7.43;;;;;;;;;;4941850;29;20388;-79
2022/10/07 07:34:00;;;;;;;8.98;6.97;;;;;;;;;;4941500;29;20469;-81
2022/10/07 07:36:27;;;;;;;9.23;7.57;;;;;;;;;;4959062;29;20023;-80
2022/10/07 07:38:54;;;;;;;8.13;6.95;;;;;;;;;;4941413;29;20031;-81
2022/10/07 07:41:22;;;;;;;11.82;8.15;;;;;;;;;;4941485;29;20034;-80
2022/10/07 07:43:49;;;;;;;9.57;7.35;;;;;;;;;;4941124;29;20035;-80
2022/10/07 07:46:16;;;;;;;9.52;6.75;;;;;;;;;;4941268;29;20138;-79
2022/10/07 07:48:42;;;;;;;10.32;7.60;;;;;;;;;;4941011;29;20046;-79
2022/10/07 07:51:09;;;;;;;9.35;7.10;;;;;;;;;;4941328;29;20024;-78
2022/10/07 07:53:36;;;;;;;11.05;7.22;;;;;;;;;;4958733;29;20031;-78
2022/10/07 07:56:02;;;;;;;7.53;6.55;;;;;;;;;;4941741;29;20031;-80
2022/10/07 07:58:29;;;;;;;9.13;6.90;;;;;;;;;;4942030;29;20038;-81
2022/10/07 08:01:02;;;;;;;8.48;6.40;;;;;;;;;;4941108;29;20469;-80
2022/10/07 08:03:29;;;;;;;11.00;7.38;;;;;;;;;;4941767;29;20035;-79
2022/10/07 08:05:55;;;;;;;8.63;6.30;;;;;;;;;;4942578;29;20492;-80
2022/10/07 08:08:21;;;;;;;11.35;6.95;;;;;;;;;;4960066;29;20041;-79
2022/10/07 08:10:48;;;;;;;9.93;6.72;;;;;;;;;;4958466;29;20384;-79
2022/10/07 08:13:14;;;;;;;14.35;6.55;;;;;;;;;;4940759;29;20472;-79
2022/10/07 08:15:40;;;;;;;11.43;6.90;;;;;;;;;;4941315;29;20027;-81
2022/10/07 08:18:07;;;;;;;7.82;6.70;;;;;;;;;;4941183;29;20460;-81
2022/10/07 08:20:35;;;;;;;11.07;6.32;;;;;;;;;;4941229;29;20055;-80
2022/10/07 08:23:02;;;;;;;10.20;6.88;;;;;;;;;;4958002;29;20023;-79
2022/10/07 08:25:28;;;;;;;10.73;6.40;;;;;;;;;;4958560;29;20065;-82
2022/10/07 08:27:58;;;;;;;9.00;6.32;;;;;;;;;;4942362;29;20107;-83
2022/10/07 08:30:24;;;;;;;11.07;6.75;;;;;;;;;;4941811;29;20045;-81
2022/10/07 08:32:51;;;;;;;11.23;6.07;;;;;;;;;;4945425;29;20051;-83
2022/10/07 08:35:17;;;;;;;8.88;6.82;;;;;;;;;;4940537;29;20477;-82
2022/10/07 08:37:43;;;;;;;9.30;6.57;;;;;;;;;;4940150;29;20032;-81
2022/10/07 08:40:16;;;;;;;9.55;6.25;;;;;;;;;;4939901;29;20031;-80
2022/10/07 08:42:42;;;;;;;10.77;7.07;;;;;;;;;;4957606;29;20023;-80
2022/10/07 08:45:13;;;;;;;11.07;7.80;;;;;;;;;;4957150;29;20047;-79
2022/10/07 08:47:43;;;;;;;8.95;6.55;;;;;;;;;;4940113;29;20036;-79
2022/10/07 08:50:28;;;;;;;9.45;7.20;;;;;;;;;;4957387;29;20050;-80
2022/10/07 08:52:54;;;;;;;8.25;6.60;;;;;;;;;;4957264;29;20030;-81
2022/10/07 08:55:33;;;;;;;13.23;8.45;;;;;;;;;;4959540;28;20050;-81
2022/10/07 08:58:18;;;;;;;9.63;7.68;;;;;;;;;;4957176;29;20031;-80
2022/10/07 09:01:03;;;;;;;9.60;7.82;;;;;;;;;;4940075;29;20131;-80
2022/10/07 09:03:38;;;;;;;10.35;7.07;;;;;;;;;;4939896;29;20023;-80
2022/10/07 09:06:09;;;;;;;13.18;7.70;;;;;;;;;;4968577;28;20065;-80
2022/10/07 09:08:39;;;;;;;12.50;8.23;;;;;;;;;;4958958;28;20046;-81
2022/10/07 09:11:17;;;;;;;10.95;7.60;;;;;;;;;;4959087;28;20030;-80
2022/10/07 09:13:48;;;;;;;11.00;7.50;;;;;;;;;;4958933;28;20061;-81
2022/10/07 09:16:20;;;;;;;10.32;6.80;;;;;;;;;;4959115;28;20062;-81
2022/10/07 09:18:49;;;;;;;11.80;7.38;;;;;;;;;;4956512;28;20058;-79
2022/10/07 09:21:36;;;;;;;8.38;6.80;;;;;;;;;;4957171;29;20019;-79
2022/10/07 09:24:15;;;;;;;9.70;7.13;;;;;;;;;;4956640;29;20027;-81
2022/10/07 09:26:42;;;;;;;10.48;6.63;;;;;;;;;;4945239;28;20070;-81
2022/10/07 09:29:09;;;;;;;9.98;6.30;;;;;;;;;;4976065;28;20520;-79
2022/10/07 09:31:35;;;;;;;10.90;6.93;;;;;;;;;;4958867;28;20019;-80
2022/10/07 09:34:01;;;;;;;10.35;6.50;;;;;;;;;;4958260;28;20198;-82
2022/10/07 09:36:27;;;;;;;9.25;7.03;;;;;;;;;;4958725;28;20034;-79
2022/10/07 09:38:53;;;;;;;9.00;5.75;;;;;;;;;;4975800;28;20089;-79
2022/10/07 09:41:29;;;;;;;8.52;6.00;;;;;;;;;;4975791;28;20027;-83
2022/10/07 09:43:57;;;;;;;10.45;5.80;;;;;;;;;;4975685;28;20027;-78
2022/10/07 09:46:46;;;;;;;10.98;5.53;;;;;;;;;;4975587;28;20206;-79
2022/10/07 09:49:29;;;;;;;6.63;4.95;;;;;;;;;;4975683;28;20034;-78
2022/10/07 09:51:59;;;;;;;9.70;6.30;;;;;;;;;;4975178;28;20027;-79
2022/10/07 09:54:25;;;;;;;7.45;5.15;;;;;;;;;;4958025;28;20048;-79
2022/10/07 09:56:56;;;;;;;11.48;6.15;;;;;;;;;;4958210;28;20066;-79
2022/10/07 09:59:23;;;;;;;7.90;6.07;;;;;;;;;;4968062;28;20027;-83
2022/10/07 10:02:08;;;;;;;8.85;5.53;;;;;;;;;;4939140;29;20082;-80
2022/10/07 10:04:36;;;;;;;9.48;5.82;;;;;;;;;;4938705;29;20507;-80
2022/10/07 10:07:24;;;;;;;9.18;5.70;;;;;;;;;;4938848;29;20027;-78
2022/10/07 10:09:51;;;;;;;13.40;5.72;;;;;;;;;;4955935;29;20046;-80
2022/10/07 10:12:18;;;;;;;8.70;5.88;;;;;;;;;;4938740;29;20078;-79
2022/10/07 10:14:55;;;;;;;8.80;5.65;;;;;;;;;;4938438;29;20449;-80
2022/10/07 10:17:33;;;;;;;6.55;4.85;;;;;;;;;;4963884;28;20027;-79
2022/10/07 10:20:18;;;;;;;9.15;5.05;;;;;;;;;;4962944;28;20082;-79
2022/10/07 10:22:45;;;;;;;8.40;4.93;;;;;;;;;;4957679;28;20396;-80
2022/10/07 10:28:03;;;;;;;9.85;6.07;;;;;;;;;;4975035;28;20419;-78
2022/10/07 10:30:29;;;;;;;9.07;5.63;;;;;;;;;;4957643;28;20385;-79
2022/10/07 10:33:11;;;;;;;8.00;5.10;;;;;;;;;;4957407;28;20027;-79
2022/10/07 10:35:41;;;;;;;6.57;4.97;;;;;;;;;;4957611;28;20169;-81
2022/10/07 10:38:23;;;;;;;7.78;5.63;;;;;;;;;;4957442;28;20027;-80
2022/10/07 10:40:58;;;;;;;8.02;4.60;;;;;;;;;;4957516;28;20033;-81
2022/10/07 10:43:24;;;;;;;8.95;4.72;;;;;;;;;;4957246;28;20118;-82
2022/10/07 10:46:15;;;;;;;9.40;4.60;;;;;;;;;;4957288;28;20062;-81
2022/10/07 10:48:43;;;;;;;6.85;4.43;;;;;;;;;;4957500;28;20031;-82
2022/10/07 10:51:36;;;;;;;5.80;3.95;;;;;;;;;;4957339;28;20034;-81
2022/10/07 10:54:21;;;;;;;7.30;4.22;;;;;;;;;;4890442;29;20039;-81
2022/10/07 10:57:00;;;;;;;6.95;4.47;;;;;;;;;;4936879;29;20031;-81
2022/10/07 10:59:32;;;;;;;9.68;5.18;;;;;;;;;;4920342;29;20474;-79
2022/10/07 11:02:17;;;;;;;5.85;4.30;;;;;;;;;;4919599;29;20031;-83
2022/10/07 11:04:49;;;;;;;10.60;5.20;;;;;;;;;;4919486;29;20058;-86
2022/10/07 11:07:22;;;;;;;9.20;5.38;;;;;;;;;;4919928;29;20036;-77
2022/10/07 11:09:54;;;;;;;8.40;4.60;;;;;;;;;;4919826;29;20851;-83
2022/10/07 11:12:26;;;;;;;6.82;5.10;;;;;;;;;;4920131;29;20031;-86
2022/10/07 11:15:01;;;;;;;7.50;4.45;;;;;;;;;;4919516;29;20039;-81
2022/10/07 11:17:36;;;;;;;5.50;4.35;;;;;;;;;;4919727;29;20359;-84
2022/10/07 11:20:26;;;;;;;7.57;5.15;;;;;;;;;;4920141;29;20024;-88
2022/10/07 11:22:55;;;;;;;6.32;4.13;;;;;;;;;;4936907;29;20023;-82
2022/10/07 11:25:44;;;;;;;7.68;5.13;;;;;;;;;;4919406;29;20056;-77
2022/10/07 11:28:20;;;;;;;8.90;5.18;;;;;;;;;;4917178;29;20043;-78
2022/10/07 11:31:04;;;;;;;8.35;4.20;;;;;;;;;;4918826;29;20038;-77
2022/10/07 11:33:45;;;;;;;5.38;4.60;;;;;;;;;;4918751;29;20086;-78
2022/10/07 11:36:21;;;;;;;6.93;4.07;;;;;;;;;;4918714;29;20346;-79
2022/10/07 11:38:48;;;;;;;11.45;4.70;;;;;;;;;;4918587;29;20039;-80
2022/10/07 11:41:41;;;;;;;11.07;3.90;;;;;;;;;;4928774;29;20065;-78
2022/10/07 11:44:13;;;;;;;7.72;4.38;;;;;;;;;;5100726;23;20066;-91
2022/10/07 11:46:40;;;;;;;5.60;3.60;;;;;;;;;;4925180;29;20034;-92
2022/10/07 11:49:12;;;;;;;6.55;3.80;;;;;;;;;;4924091;29;20044;-91
2022/10/07 11:51:50;;;;;;;6.72;4.30;;;;;;;;;;4924120;29;20027;-91
2022/10/07 11:54:20;;;;;;;9.35;4.93;;;;;;;;;;4940498;29;20039;-92
2022/10/07 11:56:50;;;;;;;8.20;4.80;;;;;;;;;;4939974;29;20099;-92
2022/10/07 11:59:26;;;;;;;7.30;4.50;;;;;;;;;;4960223;28;20031;-90
2022/10/07 12:01:52;;;;;;;7.03;4.40;;;;;;;;;;4961603;29;20389;-92
2022/10/07 12:04:24;;;;;;;8.90;4.30;;;;;;;;;;4940166;29;20032;-91
2022/10/07 12:07:09;;;;;;;6.43;4.13;;;;;;;;;;4939780;29;20035;-92
2022/10/07 12:09:53;;;;;;;5.05;3.90;;;;;;;;;;4939809;29;20046;-91
2022/10/07 12:12:23;;;;;;;6.90;3.65;;;;;;;;;;4939767;29;20118;-92
2022/10/07 12:15:02;;;;;;;5.60;4.10;;;;;;;;;;4941410;29;20118;-90
2022/10/07 12:17:29;;;;;;;6.28;3.60;;;;;;;;;;4943560;29;20358;-92
2022/10/07 12:20:14;;;;;;;4.80;4.25;;;;;;;;;;4943119;29;20023;-90
2022/10/07 12:22:41;;;;;;;6.50;4.10;;;;;;;;;;4943118;29;20031;-92
2022/10/07 12:25:27;;;;;;;6.72;4.10;;;;;;;;;;4943723;29;20034;-92
2022/10/07 12:27:54;;;;;;;5.25;4.38;;;;;;;;;;4943554;29;20019;-92
2022/10/07 12:30:38;;;;;;;5.68;3.67;;;;;;;;;;4943746;28;20036;-93
2022/10/07 12:33:28;;;;;;;6.68;3.60;;;;;;;;;;4943618;29;20014;-94
2022/10/07 12:35:54;;;;;;;6.43;3.80;;;;;;;;;;4934490;28;20134;-92
2022/10/07 12:38:25;;;;;;;6.72;3.95;;;;;;;;;;4962104;28;20019;-92
2022/10/07 12:41:00;;;;;;;6.93;4.47;;;;;;;;;;4962379;28;20055;-91
2022/10/07 12:43:33;;;;;;;5.55;4.28;;;;;;;;;;4943508;29;20046;-90
2022/10/07 12:46:00;;;;;;;7.82;4.53;;;;;;;;;;4943241;29;20059;-92
2022/10/07 12:48:29;;;;;;;5.22;3.67;;;;;;;;;;4943309;29;20042;-90
2022/10/07 12:50:55;;;;;;;8.45;3.90;;;;;;;;;;4996395;23;20837;-81
2022/10/07 12:53:23;;;;;;;6.45;4.15;;;;;;;;;;4919138;29;20051;-82
2022/10/07 12:55:51;;;;;;;7.90;3.60;;;;;;;;;;4922016;29;20031;-80
2022/10/07 13:01:17;;;;;;;6.03;4.25;;;;;;;;;;4938392;29;20059;-79
2022/10/07 13:03:43;;;;;;;7.25;4.30;;;;;;;;;;4920953;29;20020;-80
2022/10/07 13:06:31;;;;;;;8.23;4.30;;;;;;;;;;4921153;29;20164;-79
2022/10/07 13:09:03;;;;;;;7.28;3.95;;;;;;;;;;4938345;29;20119;-77
2022/10/07 13:11:32;;;;;;;6.85;3.72;;;;;;;;;;4921063;29;20051;-77
2022/10/07 13:14:08;;;;;;;8.00;3.97;;;;;;;;;;4920094;29;20020;-79
2022/10/07 13:16:43;;;;;;;9.90;4.20;;;;;;;;;;4921043;29;20032;-77
2022/10/07 13:19:19;;;;;;;10.25;4.47;;;;;;;;;;4921059;29;20470;-77
2022/10/07 13:21:45;;;;;;;6.32;4.00;;;;;;;;;;4920952;29;20393;-76
2022/10/07 13:24:16;;;;;;;7.10;4.00;;;;;;;;;;4938102;29;20127;-76
2022/10/07 13:26:45;;;;;;;6.90;3.88;;;;;;;;;;4937250;29;20073;-83
2022/10/07 13:29:43;;;;;;;6.07;4.10;;;;;;;;;;4920333;29;20043;-83
2022/10/07 13:32:17;;;;;;;6.57;3.92;;;;;;;;;;4906408;29;20096;-80
2022/10/07 13:34:44;;;;;;;;;;;;;;;;;;4921556;29;20031;-84
2022/10/07 13:37:27;;;;;;;6.03;4.43;;;;;;;;;;4921143;29;19911;-85
2022/10/07 13:39:54;;;;;;;5.60;4.05;;;;;;;;;;4937306;29;20488;-77
2022/10/07 13:42:21;;;;;;;6.95;4.25;;;;;;;;;;4921006;29;20039;-85
2022/10/07 13:44:48;;;;;;;5.78;4.07;;;;;;;;;;4920774;29;20123;-84
2022/10/07 13:47:18;;;;;;;6.20;3.90;;;;;;;;;;4920908;29;20492;-77
2022/10/07 13:49:47;;;;;;;5.15;3.70;;;;;;;;;;4937518;29;20080;-82
2022/10/07 13:52:19;;;;;;;6.32;4.13;;;;;;;;;;4920254;29;20051;-79
2022/10/07 13:54:50;;;;;;;7.43;4.30;;;;;;;;;;4937327;29;20032;-85
2022/10/07 13:57:16;;;;;;;9.95;4.40;;;;;;;;;;4920728;29;20027;-85
2022/10/07 13:59:45;;;;;;;5.72;3.83;;;;;;;;;;4921035;29;20067;-85
2022/10/07 14:02:15;;;;;;;5.60;4.15;;;;;;;;;;4920876;29;20024;-77
2022/10/07 14:05:08;;;;;;;6.22;3.97;;;;;;;;;;4920537;29;20027;-85
2022/10/07 14:07:41;;;;;;;6.63;4.00;;;;;;;;;;4899450;29;20438;-85
2022/10/07 14:10:08;;;;;;;5.35;4.03;;;;;;;;;;4920973;29;20032;-85
2022/10/07 14:12:40;;;;;;;6.60;3.85;;;;;;;;;;4921017;29;20024;-84
2022/10/07 14:15:14;;;;;;;6.60;4.07;;;;;;;;;;4920753;29;20397;-85
2022/10/07 14:17:43;;;;;;;4.90;4.13;;;;;;;;;;4920187;29;20028;-77
2022/10/07 14:20:17;;;;;;;8.23;4.10;;;;;;;;;;4920128;29;20027;-85
2022/10/07 14:22:46;;;;;;;8.52;4.22;;;;;;;;;;4920042;29;20027;-84
2022/10/07 14:25:17;;;;;;;6.60;4.10;;;;;;;;;;4920228;29;20115;-85
2022/10/07 14:27:46;;;;;;;6.97;4.15;;;;;;;;;;4920251;29;20028;-85
2022/10/07 14:30:26;;;;;;;5.28;4.25;;;;;;;;;;4920268;29;20089;-85
2022/10/07 14:36:09;;;;;;;6.25;4.40;;;;;;;;;;4937214;29;20128;-85
2022/10/07 14:38:35;;;;;;;7.38;4.55;;;;;;;;;;4936745;29;20496;-85
2022/10/07 14:41:01;;;;;;;8.55;4.30;;;;;;;;;;4919981;29;20556;-83
2022/10/07 14:43:30;;;;;;;5.47;4.43;;;;;;;;;;4919958;29;20028;-84
2022/10/07 14:45:56;;;;;;;5.35;4.10;;;;;;;;;;4919863;29;20078;-85
2022/10/07 14:48:23;;;;;;;6.63;4.50;;;;;;;;;;4920150;29;20381;-85
2022/10/07 14:50:50;;;;;;;11.27;4.40;;;;;;;;;;4919939;29;20023;-83
2022/10/07 14:53:16;;;;;;;6.65;4.43;;;;;;;;;;4919023;29;20516;-82
2022/10/07 14:55:42;;;;;;;8.20;4.60;;;;;;;;;;4919030;29;20027;-84
2022/10/07 14:58:12;;;;;;;7.05;4.47;;;;;;;;;;4919847;29;20489;-85
2022/10/07 15:00:38;;;;;;;6.95;4.82;;;;;;;;;;4919438;29;20038;-77
2022/10/07 15:03:04;;;;;;;8.43;4.70;;;;;;;;;;4919096;29;20540;-77
2022/10/07 15:05:32;;;;;;;8.40;4.55;;;;;;;;;;4936188;29;20043;-77
2022/10/07 15:07:58;;;;;;;9.65;4.55;;;;;;;;;;4919497;29;20079;-85